This is the latest recevied weather packets stored in our database for station/object EA5LU-10. If no packets are shown the sender has not sent any weather packets the latest 10 day(s).
| Time | Temp. | Humidity | Pressure | Rain* | Wind** | Luminosity | Snow |
|---|---|---|---|---|---|---|---|
| 1778024470 | 18.33° C | 71% | 1001.9 hPa | - | - | - | - |
| 1778023565 | 18.33° C | 72% | 1001.8 hPa | - | - | - | - |
| 1778022664 | 18.89° C | 71% | 1001.9 hPa | - | - | - | - |
| 1778021763 | 19.44° C | 70% | 1001.9 hPa | - | - | - | - |
| 1778020868 | 20° C | 69% | 1002.1 hPa | - | - | - | - |
| 1778019963 | 19.44° C | 69% | 1002.2 hPa | - | - | - | - |
| 1778019065 | 20° C | 70% | 1002.2 hPa | - | - | - | - |
| 1778018164 | 20.56° C | 67% | 1002.3 hPa | - | - | - | - |
| 1778017259 | 21.11° C | 66% | 1002.4 hPa | - | - | - | - |
| 1778016358 | 21.11° C | 67% | 1002.5 hPa | - | - | - | - |
| 1778014561 | 21.67° C | 66% | 1002.2 hPa | - | - | - | - |
| 1778012755 | 21.67° C | 65% | 1002.2 hPa | - | - | - | - |
| 1778011854 | 22.22° C | 64% | 1002 hPa | - | - | - | - |
| 1778010952 | 22.22° C | 63% | 1001.7 hPa | - | - | - | - |
| 1778010052 | 22.22° C | 63% | 1001.6 hPa | - | - | - | - |
| 1778009151 | 22.78° C | 62% | 1001.6 hPa | - | - | - | - |
| 1778007351 | 22.78° C | 60% | 1001.5 hPa | - | - | - | - |
| 1778006454 | 23.89° C | 57% | 1001.5 hPa | - | - | - | - |
| 1778005547 | 28.33° C | 48% | 1001.3 hPa | - | - | - | - |
| 1778004645 | 28.33° C | 46% | 1001.3 hPa | - | - | - | - |
| 1778003745 | 27.22° C | 47% | 1001.1 hPa | - | - | - | - |
| 1778002844 | 27.78° C | 43% | 1001 hPa | - | - | - | - |
| 1778001943 | 29.44° C | 40% | 1000.9 hPa | - | - | - | - |
| 1778001042 | 29.44° C | 40% | 1000.9 hPa | - | - | - | - |
| 1778000141 | 28.89° C | 40% | 1001 hPa | - | - | - | - |
* Rain since midnight (hover to see other rain measurements)
** Current wind speed in m/s (hover to see current wind gust speed)